Terminal Aerodrome Forecast
Issued by NWS Mobile, AL

Home | Current Version | Previous Version | Text Only | Print | Product List | Glossary On
Versions: 1 2 3 4 5 6 7 8 9 10 11 12 13
000
FTUS44 KMOB 290535
TAFPNS
TAF
KPNS 290535Z 2906/3006 10004KT P6SM VCSH SCT010 SCT110
     FM290900 13006KT P6SM TSRA BKN030CB
     FM291500 13009KT 3SM TSRA BKN020CB
     FM300000 14008KT P6SM VCTS BKN030CB OVC080=

USA.gov is the U.S. government's official web portal to all federal, state and local government web resources and services.